sensor_id;sensor_type;location;lat;lon;timestamp;temperature;humidity
3275;DHT22;1649;53.672;10.064;2023-07-13T00:02:05;15.90;99.90
3275;DHT22;1649;53.672;10.064;2023-07-13T00:04:31;15.80;99.90
3275;DHT22;1649;53.672;10.064;2023-07-13T00:06:56;15.70;99.90
3275;DHT22;1649;53.672;10.064;2023-07-13T00:09:22;15.80;99.90
3275;DHT22;1649;53.672;10.064;2023-07-13T00:11:54;15.90;99.90
3275;DHT22;1649;53.672;10.064;2023-07-13T00:14:20;15.90;99.90
3275;DHT22;1649;53.672;10.064;2023-07-13T00:16:46;15.90;99.90
3275;DHT22;1649;53.672;10.064;2023-07-13T00:19:12;15.90;99.90
3275;DHT22;1649;53.672;10.064;2023-07-13T00:21:39;15.90;99.90
3275;DHT22;1649;53.672;10.064;2023-07-13T00:24:05;15.80;99.90
3275;DHT22;1649;53.672;10.064;2023-07-13T00:26:31;15.80;99.90
3275;DHT22;1649;53.672;10.064;2023-07-13T00:28:58;15.90;99.90
3275;DHT22;1649;53.672;10.064;2023-07-13T00:31:23;15.90;99.90
3275;DHT22;1649;53.672;10.064;2023-07-13T00:33:49;15.80;99.90
3275;DHT22;1649;53.672;10.064;2023-07-13T00:36:14;15.80;99.90
3275;DHT22;1649;53.672;10.064;2023-07-13T00:38:40;15.70;99.90
3275;DHT22;1649;53.672;10.064;2023-07-13T00:41:06;15.70;99.90
3275;DHT22;1649;53.672;10.064;2023-07-13T00:43:31;15.60;99.90
3275;DHT22;1649;53.672;10.064;2023-07-13T00:46:16;15.70;99.90
3275;DHT22;1649;53.672;10.064;2023-07-13T00:48:43;15.70;99.90
3275;DHT22;1649;53.672;10.064;2023-07-13T00:51:10;15.70;99.90
3275;DHT22;1649;53.672;10.064;2023-07-13T00:53:36;15.70;99.90
3275;DHT22;1649;53.672;10.064;2023-07-13T00:56:03;15.60;99.90
3275;DHT22;1649;53.672;10.064;2023-07-13T00:58:29;15.50;99.90
3275;DHT22;1649;53.672;10.064;2023-07-13T01:00:55;15.50;99.90
3275;DHT22;1649;53.672;10.064;2023-07-13T01:03:21;15.50;99.90
3275;DHT22;1649;53.672;10.064;2023-07-13T01:05:48;15.50;99.90
3275;DHT22;1649;53.672;10.064;2023-07-13T01:08:15;15.50;99.90
3275;DHT22;1649;53.672;10.064;2023-07-13T01:10:41;15.30;99.90
3275;DHT22;1649;53.672;10.064;2023-07-13T01:13:09;15.40;99.90
3275;DHT22;1649;53.672;10.064;2023-07-13T01:18:05;15.30;99.90
3275;DHT22;1649;53.672;10.064;2023-07-13T01:20:32;15.40;99.90
3275;DHT22;1649;53.672;10.064;2023-07-13T01:23:06;15.30;99.90
3275;DHT22;1649;53.672;10.064;2023-07-13T01:25:34;15.20;99.90
3275;DHT22;1649;53.672;10.064;2023-07-13T01:28:01;15.10;99.90
3275;DHT22;1649;53.672;10.064;2023-07-13T01:30:27;15.20;99.90
3275;DHT22;1649;53.672;10.064;2023-07-13T01:32:52;15.10;99.90
3275;DHT22;1649;53.672;10.064;2023-07-13T01:35:18;15.10;99.90
3275;DHT22;1649;53.672;10.064;2023-07-13T01:37:43;15.00;99.90
3275;DHT22;1649;53.672;10.064;2023-07-13T01:40:10;15.00;99.90
3275;DHT22;1649;53.672;10.064;2023-07-13T01:42:36;14.90;99.90
3275;DHT22;1649;53.672;10.064;2023-07-13T01:45:02;14.90;99.90
3275;DHT22;1649;53.672;10.064;2023-07-13T01:47:28;14.80;99.90
3275;DHT22;1649;53.672;10.064;2023-07-13T01:49:54;14.80;99.90
3275;DHT22;1649;53.672;10.064;2023-07-13T01:52:19;14.70;99.90
3275;DHT22;1649;53.672;10.064;2023-07-13T01:54:45;14.70;99.90
3275;DHT22;1649;53.672;10.064;2023-07-13T01:57:10;14.70;99.90
3275;DHT22;1649;53.672;10.064;2023-07-13T01:59:36;14.70;99.90
3275;DHT22;1649;53.672;10.064;2023-07-13T02:02:01;14.60;99.90
3275;DHT22;1649;53.672;10.064;2023-07-13T02:04:27;14.60;99.90
3275;DHT22;1649;53.672;10.064;2023-07-13T02:06:52;14.60;99.90
3275;DHT22;1649;53.672;10.064;2023-07-13T02:09:18;14.60;99.90
3275;DHT22;1649;53.672;10.064;2023-07-13T02:11:43;14.60;99.90
3275;DHT22;1649;53.672;10.064;2023-07-13T02:14:09;14.60;99.90
3275;DHT22;1649;53.672;10.064;2023-07-13T02:16:34;14.60;99.90
3275;DHT22;1649;53.672;10.064;2023-07-13T02:19:00;14.70;99.90
3275;DHT22;1649;53.672;10.064;2023-07-13T02:21:25;14.70;99.90
3275;DHT22;1649;53.672;10.064;2023-07-13T02:23:51;14.70;99.90
3275;DHT22;1649;53.672;10.064;2023-07-13T02:26:17;14.80;99.90
3275;DHT22;1649;53.672;10.064;2023-07-13T02:28:43;14.80;99.90
3275;DHT22;1649;53.672;10.064;2023-07-13T02:31:11;14.80;99.90
3275;DHT22;1649;53.672;10.064;2023-07-13T02:33:37;14.90;99.90
3275;DHT22;1649;53.672;10.064;2023-07-13T02:36:03;15.00;99.90
3275;DHT22;1649;53.672;10.064;2023-07-13T02:38:31;15.00;99.90
3275;DHT22;1649;53.672;10.064;2023-07-13T02:40:59;15.00;99.90
3275;DHT22;1649;53.672;10.064;2023-07-13T02:43:24;14.90;99.90
3275;DHT22;1649;53.672;10.064;2023-07-13T02:45:50;14.80;99.90
3275;DHT22;1649;53.672;10.064;2023-07-13T02:48:15;14.80;99.90
3275;DHT22;1649;53.672;10.064;2023-07-13T02:50:41;14.70;99.90
3275;DHT22;1649;53.672;10.064;2023-07-13T02:53:07;14.70;99.90
3275;DHT22;1649;53.672;10.064;2023-07-13T02:55:32;14.60;99.90
3275;DHT22;1649;53.672;10.064;2023-07-13T02:57:58;14.60;99.90
3275;DHT22;1649;53.672;10.064;2023-07-13T03:00:23;14.70;99.90
3275;DHT22;1649;53.672;10.064;2023-07-13T03:02:49;14.70;99.90
3275;DHT22;1649;53.672;10.064;2023-07-13T03:05:15;14.80;99.90
3275;DHT22;1649;53.672;10.064;2023-07-13T03:07:41;14.90;99.90
3275;DHT22;1649;53.672;10.064;2023-07-13T03:10:08;14.80;99.90
3275;DHT22;1649;53.672;10.064;2023-07-13T03:12:33;14.70;99.90
3275;DHT22;1649;53.672;10.064;2023-07-13T03:14:59;14.80;99.90
3275;DHT22;1649;53.672;10.064;2023-07-13T03:17:24;14.80;99.90
3275;DHT22;1649;53.672;10.064;2023-07-13T03:19:50;14.80;99.90
3275;DHT22;1649;53.672;10.064;2023-07-13T03:22:17;14.70;99.90
3275;DHT22;1649;53.672;10.064;2023-07-13T03:24:43;14.70;99.90
3275;DHT22;1649;53.672;10.064;2023-07-13T03:27:09;14.60;99.90
3275;DHT22;1649;53.672;10.064;2023-07-13T03:29:34;14.60;99.90
3275;DHT22;1649;53.672;10.064;2023-07-13T03:32:00;14.50;99.90
3275;DHT22;1649;53.672;10.064;2023-07-13T03:34:26;14.50;99.90
3275;DHT22;1649;53.672;10.064;2023-07-13T03:36:54;14.40;99.90
3275;DHT22;1649;53.672;10.064;2023-07-13T03:39:20;14.40;99.90
3275;DHT22;1649;53.672;10.064;2023-07-13T03:41:45;14.40;99.90
3275;DHT22;1649;53.672;10.064;2023-07-13T03:44:11;14.40;99.90
3275;DHT22;1649;53.672;10.064;2023-07-13T03:46:37;14.40;99.90
3275;DHT22;1649;53.672;10.064;2023-07-13T03:49:04;14.40;99.90
3275;DHT22;1649;53.672;10.064;2023-07-13T03:51:30;14.50;99.90
3275;DHT22;1649;53.672;10.064;2023-07-13T03:53:56;14.40;99.90
3275;DHT22;1649;53.672;10.064;2023-07-13T03:56:22;14.30;99.90
3275;DHT22;1649;53.672;10.064;2023-07-13T03:58:49;14.40;99.90
3275;DHT22;1649;53.672;10.064;2023-07-13T04:01:16;14.40;99.90
3275;DHT22;1649;53.672;10.064;2023-07-13T04:03:42;14.30;99.90
3275;DHT22;1649;53.672;10.064;2023-07-13T04:06:14;14.40;99.90
3275;DHT22;1649;53.672;10.064;2023-07-13T04:08:40;14.50;99.90
3275;DHT22;1649;53.672;10.064;2023-07-13T04:11:07;14.50;99.90
3275;DHT22;1649;53.672;10.064;2023-07-13T04:13:32;14.50;99.90
3275;DHT22;1649;53.672;10.064;2023-07-13T04:15:58;14.50;99.90
3275;DHT22;1649;53.672;10.064;2023-07-13T04:18:24;14.50;99.90
3275;DHT22;1649;53.672;10.064;2023-07-13T04:20:50;14.50;99.90
3275;DHT22;1649;53.672;10.064;2023-07-13T04:23:19;14.50;99.90
3275;DHT22;1649;53.672;10.064;2023-07-13T04:25:48;14.50;99.90
3275;DHT22;1649;53.672;10.064;2023-07-13T04:28:18;14.50;99.90
3275;DHT22;1649;53.672;10.064;2023-07-13T04:30:44;14.50;99.90
3275;DHT22;1649;53.672;10.064;2023-07-13T04:33:09;14.50;99.90
3275;DHT22;1649;53.672;10.064;2023-07-13T04:35:35;14.50;99.90
3275;DHT22;1649;53.672;10.064;2023-07-13T04:38:01;14.60;99.90
3275;DHT22;1649;53.672;10.064;2023-07-13T04:40:27;14.70;99.90
3275;DHT22;1649;53.672;10.064;2023-07-13T04:42:53;14.70;99.90
3275;DHT22;1649;53.672;10.064;2023-07-13T04:45:18;14.70;99.90
3275;DHT22;1649;53.672;10.064;2023-07-13T04:47:44;14.90;99.90
3275;DHT22;1649;53.672;10.064;2023-07-13T04:50:09;14.90;99.90
3275;DHT22;1649;53.672;10.064;2023-07-13T04:52:36;15.00;99.90
3275;DHT22;1649;53.672;10.064;2023-07-13T04:55:02;15.00;99.90
3275;DHT22;1649;53.672;10.064;2023-07-13T04:57:28;15.10;99.90
3275;DHT22;1649;53.672;10.064;2023-07-13T04:59:53;15.10;99.90
3275;DHT22;1649;53.672;10.064;2023-07-13T05:02:21;15.20;99.90
3275;DHT22;1649;53.672;10.064;2023-07-13T05:04:47;15.20;99.90
3275;DHT22;1649;53.672;10.064;2023-07-13T05:07:13;15.20;99.90
3275;DHT22;1649;53.672;10.064;2023-07-13T05:09:38;15.30;99.90
3275;DHT22;1649;53.672;10.064;2023-07-13T05:12:06;15.30;99.90
3275;DHT22;1649;53.672;10.064;2023-07-13T05:14:31;15.40;99.90
3275;DHT22;1649;53.672;10.064;2023-07-13T05:16:57;15.50;99.90
3275;DHT22;1649;53.672;10.064;2023-07-13T05:19:22;15.60;99.90
3275;DHT22;1649;53.672;10.064;2023-07-13T05:21:48;15.70;99.90
3275;DHT22;1649;53.672;10.064;2023-07-13T05:24:13;15.80;99.90
3275;DHT22;1649;53.672;10.064;2023-07-13T05:26:39;15.90;99.90
3275;DHT22;1649;53.672;10.064;2023-07-13T05:29:04;16.10;99.90
3275;DHT22;1649;53.672;10.064;2023-07-13T05:31:30;16.10;99.90
3275;DHT22;1649;53.672;10.064;2023-07-13T05:33:55;16.20;99.90
3275;DHT22;1649;53.672;10.064;2023-07-13T05:36:21;16.30;99.90
3275;DHT22;1649;53.672;10.064;2023-07-13T05:38:46;16.50;99.90
3275;DHT22;1649;53.672;10.064;2023-07-13T05:41:12;16.50;99.90
3275;DHT22;1649;53.672;10.064;2023-07-13T05:43:37;16.60;99.90
3275;DHT22;1649;53.672;10.064;2023-07-13T05:46:03;16.70;99.90
3275;DHT22;1649;53.672;10.064;2023-07-13T05:48:28;16.60;99.90
3275;DHT22;1649;53.672;10.064;2023-07-13T05:50:54;16.70;99.90
3275;DHT22;1649;53.672;10.064;2023-07-13T05:53:19;16.70;99.90
3275;DHT22;1649;53.672;10.064;2023-07-13T05:55:46;16.70;99.90
3275;DHT22;1649;53.672;10.064;2023-07-13T05:58:19;16.80;99.90
3275;DHT22;1649;53.672;10.064;2023-07-13T06:00:45;16.80;99.90
3275;DHT22;1649;53.672;10.064;2023-07-13T06:03:11;16.80;99.90
3275;DHT22;1649;53.672;10.064;2023-07-13T06:05:38;16.90;99.90
3275;DHT22;1649;53.672;10.064;2023-07-13T06:08:04;16.80;99.90
3275;DHT22;1649;53.672;10.064;2023-07-13T06:10:32;16.90;99.90
3275;DHT22;1649;53.672;10.064;2023-07-13T06:12:58;16.90;99.90
3275;DHT22;1649;53.672;10.064;2023-07-13T06:15:24;16.90;99.90
3275;DHT22;1649;53.672;10.064;2023-07-13T06:17:49;16.90;99.90
3275;DHT22;1649;53.672;10.064;2023-07-13T06:20:15;16.90;99.90
3275;DHT22;1649;53.672;10.064;2023-07-13T06:22:40;17.00;99.90
3275;DHT22;1649;53.672;10.064;2023-07-13T06:25:06;17.00;99.90
3275;DHT22;1649;53.672;10.064;2023-07-13T06:27:32;17.00;99.90
3275;DHT22;1649;53.672;10.064;2023-07-13T06:29:57;17.10;99.90
3275;DHT22;1649;53.672;10.064;2023-07-13T06:32:23;17.10;99.90
3275;DHT22;1649;53.672;10.064;2023-07-13T06:34:48;17.10;99.90
3275;DHT22;1649;53.672;10.064;2023-07-13T06:37:14;17.20;99.90
3275;DHT22;1649;53.672;10.064;2023-07-13T06:39:39;17.30;99.90
3275;DHT22;1649;53.672;10.064;2023-07-13T06:42:06;17.40;99.90
3275;DHT22;1649;53.672;10.064;2023-07-13T06:44:31;17.60;99.90
3275;DHT22;1649;53.672;10.064;2023-07-13T06:46:57;17.70;99.90
3275;DHT22;1649;53.672;10.064;2023-07-13T06:49:22;17.80;99.90
3275;DHT22;1649;53.672;10.064;2023-07-13T06:51:48;17.90;99.90
3275;DHT22;1649;53.672;10.064;2023-07-13T06:54:13;18.00;99.90
3275;DHT22;1649;53.672;10.064;2023-07-13T06:56:39;18.20;99.90
3275;DHT22;1649;53.672;10.064;2023-07-13T06:59:04;18.30;99.90
3275;DHT22;1649;53.672;10.064;2023-07-13T07:01:30;18.40;99.90
3275;DHT22;1649;53.672;10.064;2023-07-13T07:03:55;18.50;99.90
3275;DHT22;1649;53.672;10.064;2023-07-13T07:06:22;18.70;99.90
3275;DHT22;1649;53.672;10.064;2023-07-13T07:08:51;18.70;99.90
3275;DHT22;1649;53.672;10.064;2023-07-13T07:11:20;18.60;99.90
3275;DHT22;1649;53.672;10.064;2023-07-13T07:13:47;18.70;99.90
3275;DHT22;1649;53.672;10.064;2023-07-13T07:16:13;18.70;99.90
3275;DHT22;1649;53.672;10.064;2023-07-13T07:18:38;18.90;99.90
3275;DHT22;1649;53.672;10.064;2023-07-13T07:21:04;19.10;99.90
3275;DHT22;1649;53.672;10.064;2023-07-13T07:23:30;19.30;99.90
3275;DHT22;1649;53.672;10.064;2023-07-13T07:25:55;19.40;99.90
3275;DHT22;1649;53.672;10.064;2023-07-13T07:28:21;19.40;99.90
3275;DHT22;1649;53.672;10.064;2023-07-13T07:30:47;19.40;99.90
3275;DHT22;1649;53.672;10.064;2023-07-13T07:33:13;19.40;99.90
3275;DHT22;1649;53.672;10.064;2023-07-13T07:35:39;19.70;99.90
3275;DHT22;1649;53.672;10.064;2023-07-13T07:38:05;20.60;99.90
3275;DHT22;1649;53.672;10.064;2023-07-13T07:40:30;21.30;99.90
3275;DHT22;1649;53.672;10.064;2023-07-13T07:42:57;21.70;99.90
3275;DHT22;1649;53.672;10.064;2023-07-13T07:45:23;21.80;99.90
3275;DHT22;1649;53.672;10.064;2023-07-13T07:47:49;21.70;99.90
3275;DHT22;1649;53.672;10.064;2023-07-13T07:50:15;21.90;99.90
3275;DHT22;1649;53.672;10.064;2023-07-13T07:52:41;21.90;99.90
3275;DHT22;1649;53.672;10.064;2023-07-13T07:55:07;22.30;99.90
3275;DHT22;1649;53.672;10.064;2023-07-13T07:57:33;23.00;99.90
3275;DHT22;1649;53.672;10.064;2023-07-13T07:59:59;23.70;99.90
3275;DHT22;1649;53.672;10.064;2023-07-13T08:02:25;23.80;99.90
3275;DHT22;1649;53.672;10.064;2023-07-13T08:04:51;24.00;99.90
3275;DHT22;1649;53.672;10.064;2023-07-13T08:07:17;23.30;99.90
3275;DHT22;1649;53.672;10.064;2023-07-13T08:09:42;23.10;99.90
3275;DHT22;1649;53.672;10.064;2023-07-13T08:12:08;23.70;99.90
3275;DHT22;1649;53.672;10.064;2023-07-13T08:14:34;23.80;99.90
3275;DHT22;1649;53.672;10.064;2023-07-13T08:16:59;24.20;99.90
3275;DHT22;1649;53.672;10.064;2023-07-13T08:19:25;24.10;99.90
3275;DHT22;1649;53.672;10.064;2023-07-13T08:21:50;24.40;99.90
3275;DHT22;1649;53.672;10.064;2023-07-13T08:24:15;24.30;99.90
3275;DHT22;1649;53.672;10.064;2023-07-13T08:26:44;24.10;99.90
3275;DHT22;1649;53.672;10.064;2023-07-13T08:29:09;23.90;99.90
3275;DHT22;1649;53.672;10.064;2023-07-13T08:31:35;23.80;99.90
3275;DHT22;1649;53.672;10.064;2023-07-13T08:34:00;23.70;99.90
3275;DHT22;1649;53.672;10.064;2023-07-13T08:36:26;23.60;99.90
3275;DHT22;1649;53.672;10.064;2023-07-13T08:38:53;23.80;99.90
3275;DHT22;1649;53.672;10.064;2023-07-13T08:41:18;23.60;99.90
3275;DHT22;1649;53.672;10.064;2023-07-13T08:43:53;23.30;99.90
3275;DHT22;1649;53.672;10.064;2023-07-13T08:46:33;23.20;99.90
3275;DHT22;1649;53.672;10.064;2023-07-13T08:49:11;22.90;99.90
3275;DHT22;1649;53.672;10.064;2023-07-13T08:51:39;22.60;99.90
3275;DHT22;1649;53.672;10.064;2023-07-13T08:54:19;23.20;99.90
3275;DHT22;1649;53.672;10.064;2023-07-13T08:56:47;23.90;99.90
3275;DHT22;1649;53.672;10.064;2023-07-13T08:59:16;24.10;99.90
3275;DHT22;1649;53.672;10.064;2023-07-13T09:04:25;25.20;99.90
3275;DHT22;1649;53.672;10.064;2023-07-13T09:10:06;26.00;99.90
3275;DHT22;1649;53.672;10.064;2023-07-13T09:12:50;26.70;99.90
3275;DHT22;1649;53.672;10.064;2023-07-13T09:15:28;26.60;99.60
3275;DHT22;1649;53.672;10.064;2023-07-13T09:17:59;26.20;99.90
3275;DHT22;1649;53.672;10.064;2023-07-13T09:20:37;26.40;99.90
3275;DHT22;1649;53.672;10.064;2023-07-13T09:23:07;26.20;99.90
3275;DHT22;1649;53.672;10.064;2023-07-13T09:25:36;25.50;99.20
3275;DHT22;1649;53.672;10.064;2023-07-13T09:28:29;24.70;99.90
3275;DHT22;1649;53.672;10.064;2023-07-13T09:33:41;24.10;99.90
3275;DHT22;1649;53.672;10.064;2023-07-13T09:36:29;24.50;99.90
3275;DHT22;1649;53.672;10.064;2023-07-13T09:42:03;24.40;99.90
3275;DHT22;1649;53.672;10.064;2023-07-13T09:44:37;24.40;99.90
3275;DHT22;1649;53.672;10.064;2023-07-13T09:47:03;24.40;99.90
3275;DHT22;1649;53.672;10.064;2023-07-13T09:49:39;24.80;99.90
3275;DHT22;1649;53.672;10.064;2023-07-13T09:52:10;24.70;99.90
3275;DHT22;1649;53.672;10.064;2023-07-13T09:54:36;24.80;99.90
3275;DHT22;1649;53.672;10.064;2023-07-13T09:57:03;24.50;99.90
3275;DHT22;1649;53.672;10.064;2023-07-13T09:59:34;24.80;99.90
3275;DHT22;1649;53.672;10.064;2023-07-13T10:01:59;25.30;99.90
3275;DHT22;1649;53.672;10.064;2023-07-13T10:04:32;25.50;99.90
3275;DHT22;1649;53.672;10.064;2023-07-13T10:07:06;25.10;99.30
3275;DHT22;1649;53.672;10.064;2023-07-13T10:09:32;24.40;99.10
3275;DHT22;1649;53.672;10.064;2023-07-13T10:11:58;24.00;99.90
3275;DHT22;1649;53.672;10.064;2023-07-13T10:14:23;24.00;99.90
3275;DHT22;1649;53.672;10.064;2023-07-13T10:16:57;23.80;99.90
3275;DHT22;1649;53.672;10.064;2023-07-13T10:19:31;23.70;99.90
3275;DHT22;1649;53.672;10.064;2023-07-13T10:22:03;23.30;99.90
3275;DHT22;1649;53.672;10.064;2023-07-13T10:24:38;23.80;99.90
3275;DHT22;1649;53.672;10.064;2023-07-13T10:27:17;24.50;99.90
3275;DHT22;1649;53.672;10.064;2023-07-13T10:32:19;25.80;99.90
3275;DHT22;1649;53.672;10.064;2023-07-13T10:34:47;26.10;97.80
3275;DHT22;1649;53.672;10.064;2023-07-13T10:37:21;26.30;97.20
3275;DHT22;1649;53.672;10.064;2023-07-13T10:39:48;26.60;96.30
3275;DHT22;1649;53.672;10.064;2023-07-13T10:45:20;25.80;95.90
3275;DHT22;1649;53.672;10.064;2023-07-13T10:47:47;25.70;98.90
3275;DHT22;1649;53.672;10.064;2023-07-13T10:50:22;25.60;96.10
3275;DHT22;1649;53.672;10.064;2023-07-13T10:52:52;25.00;98.70
3275;DHT22;1649;53.672;10.064;2023-07-13T10:56:22;24.50;98.60
3275;DHT22;1649;53.672;10.064;2023-07-13T10:58:38;24.60;99.90
3275;DHT22;1649;53.672;10.064;2023-07-13T11:01:13;24.40;96.40
3275;DHT22;1649;53.672;10.064;2023-07-13T11:06:12;23.80;97.20
3275;DHT22;1649;53.672;10.064;2023-07-13T11:08:52;23.70;99.50
3275;DHT22;1649;53.672;10.064;2023-07-13T11:18:49;23.20;99.90
3275;DHT22;1649;53.672;10.064;2023-07-13T11:21:17;23.00;99.90
3275;DHT22;1649;53.672;10.064;2023-07-13T11:23:45;23.10;99.90
3275;DHT22;1649;53.672;10.064;2023-07-13T11:26:39;23.60;99.90
3275;DHT22;1649;53.672;10.064;2023-07-13T11:31:43;23.70;99.90
3275;DHT22;1649;53.672;10.064;2023-07-13T11:34:21;23.70;98.90
3275;DHT22;1649;53.672;10.064;2023-07-13T11:36:49;23.80;99.90
3275;DHT22;1649;53.672;10.064;2023-07-13T11:39:29;23.70;99.90
3275;DHT22;1649;53.672;10.064;2023-07-13T11:42:00;23.60;99.90
3275;DHT22;1649;53.672;10.064;2023-07-13T11:44:29;23.50;99.90
3275;DHT22;1649;53.672;10.064;2023-07-13T11:47:14;23.70;99.90
3275;DHT22;1649;53.672;10.064;2023-07-13T11:49:45;24.10;99.90
3275;DHT22;1649;53.672;10.064;2023-07-13T11:52:16;24.80;99.90
3275;DHT22;1649;53.672;10.064;2023-07-13T11:54:54;25.10;99.90
3275;DHT22;1649;53.672;10.064;2023-07-13T11:57:26;25.50;99.90
3275;DHT22;1649;53.672;10.064;2023-07-13T11:59:53;26.00;99.90
3275;DHT22;1649;53.672;10.064;2023-07-13T12:02:35;26.00;99.90
3275;DHT22;1649;53.672;10.064;2023-07-13T12:05:04;26.00;99.90
3275;DHT22;1649;53.672;10.064;2023-07-13T12:07:32;25.80;99.90
3275;DHT22;1649;53.672;10.064;2023-07-13T12:10:03;25.40;99.10
3275;DHT22;1649;53.672;10.064;2023-07-13T12:12:36;24.50;97.80
3275;DHT22;1649;53.672;10.064;2023-07-13T12:15:06;23.80;99.90
3275;DHT22;1649;53.672;10.064;2023-07-13T12:17:34;23.20;99.90
3275;DHT22;1649;53.672;10.064;2023-07-13T12:20:01;22.20;99.90
3275;DHT22;1649;53.672;10.064;2023-07-13T12:22:34;21.60;99.90
3275;DHT22;1649;53.672;10.064;2023-07-13T12:25:00;20.70;99.90
3275;DHT22;1649;53.672;10.064;2023-07-13T12:27:27;20.00;99.90
3275;DHT22;1649;53.672;10.064;2023-07-13T12:30:05;19.00;99.90
3275;DHT22;1649;53.672;10.064;2023-07-13T12:32:31;18.30;99.90
3275;DHT22;1649;53.672;10.064;2023-07-13T12:35:17;17.80;99.90
3275;DHT22;1649;53.672;10.064;2023-07-13T12:37:45;17.60;99.90
3275;DHT22;1649;53.672;10.064;2023-07-13T12:40:19;17.40;99.90
3275;DHT22;1649;53.672;10.064;2023-07-13T12:42:47;17.30;99.90
3275;DHT22;1649;53.672;10.064;2023-07-13T12:45:22;17.20;99.90
3275;DHT22;1649;53.672;10.064;2023-07-13T12:48:02;17.20;99.90
3275;DHT22;1649;53.672;10.064;2023-07-13T12:50:34;17.20;99.90
3275;DHT22;1649;53.672;10.064;2023-07-13T12:53:04;17.40;99.90
3275;DHT22;1649;53.672;10.064;2023-07-13T12:55:42;17.80;99.90
3275;DHT22;1649;53.672;10.064;2023-07-13T12:58:26;18.40;99.90
3275;DHT22;1649;53.672;10.064;2023-07-13T13:00:54;18.80;99.90
3275;DHT22;1649;53.672;10.064;2023-07-13T13:03:32;19.30;99.90
3275;DHT22;1649;53.672;10.064;2023-07-13T13:06:00;19.80;99.90
3275;DHT22;1649;53.672;10.064;2023-07-13T13:08:28;20.10;99.90
3275;DHT22;1649;53.672;10.064;2023-07-13T13:10:54;20.20;99.90
3275;DHT22;1649;53.672;10.064;2023-07-13T13:13:19;20.40;99.90
3275;DHT22;1649;53.672;10.064;2023-07-13T13:15:45;20.40;99.90
3275;DHT22;1649;53.672;10.064;2023-07-13T13:18:16;20.40;99.90
3275;DHT22;1649;53.672;10.064;2023-07-13T13:20:42;20.30;99.90
3275;DHT22;1649;53.672;10.064;2023-07-13T13:23:13;20.30;99.90
3275;DHT22;1649;53.672;10.064;2023-07-13T13:25:43;20.20;99.90
3275;DHT22;1649;53.672;10.064;2023-07-13T13:28:13;20.30;99.90
3275;DHT22;1649;53.672;10.064;2023-07-13T13:30:40;20.40;99.90
3275;DHT22;1649;53.672;10.064;2023-07-13T13:33:10;20.50;99.90
3275;DHT22;1649;53.672;10.064;2023-07-13T13:35:37;20.60;99.90
3275;DHT22;1649;53.672;10.064;2023-07-13T13:38:10;20.60;99.90
3275;DHT22;1649;53.672;10.064;2023-07-13T13:40:36;20.60;99.90
3275;DHT22;1649;53.672;10.064;2023-07-13T13:43:02;20.40;99.90
3275;DHT22;1649;53.672;10.064;2023-07-13T13:45:27;20.40;99.90
3275;DHT22;1649;53.672;10.064;2023-07-13T13:47:52;20.30;99.90
3275;DHT22;1649;53.672;10.064;2023-07-13T13:50:21;20.40;99.90
3275;DHT22;1649;53.672;10.064;2023-07-13T13:52:48;20.60;99.90
3275;DHT22;1649;53.672;10.064;2023-07-13T13:55:14;20.70;99.90
3275;DHT22;1649;53.672;10.064;2023-07-13T13:57:40;20.80;99.90
3275;DHT22;1649;53.672;10.064;2023-07-13T14:00:09;20.70;99.90
3275;DHT22;1649;53.672;10.064;2023-07-13T14:02:37;20.90;99.90
3275;DHT22;1649;53.672;10.064;2023-07-13T14:05:03;20.70;99.90
3275;DHT22;1649;53.672;10.064;2023-07-13T14:07:29;20.50;99.90
3275;DHT22;1649;53.672;10.064;2023-07-13T14:09:58;20.30;99.90
3275;DHT22;1649;53.672;10.064;2023-07-13T14:12:27;20.40;99.90
3275;DHT22;1649;53.672;10.064;2023-07-13T14:14:54;20.30;99.90
3275;DHT22;1649;53.672;10.064;2023-07-13T14:17:22;20.60;99.90
3275;DHT22;1649;53.672;10.064;2023-07-13T14:19:50;20.80;99.90
3275;DHT22;1649;53.672;10.064;2023-07-13T14:22:17;21.00;99.90
3275;DHT22;1649;53.672;10.064;2023-07-13T14:24:43;21.20;99.90
3275;DHT22;1649;53.672;10.064;2023-07-13T14:27:10;21.50;99.90
3275;DHT22;1649;53.672;10.064;2023-07-13T14:29:36;21.60;99.90
3275;DHT22;1649;53.672;10.064;2023-07-13T14:32:02;21.40;99.90
3275;DHT22;1649;53.672;10.064;2023-07-13T14:34:28;21.30;99.90
3275;DHT22;1649;53.672;10.064;2023-07-13T14:36:53;21.30;99.90
3275;DHT22;1649;53.672;10.064;2023-07-13T14:39:21;21.20;99.90
3275;DHT22;1649;53.672;10.064;2023-07-13T14:41:50;21.20;99.90
3275;DHT22;1649;53.672;10.064;2023-07-13T14:44:20;21.10;99.90
3275;DHT22;1649;53.672;10.064;2023-07-13T14:46:46;20.90;99.90
3275;DHT22;1649;53.672;10.064;2023-07-13T14:49:28;20.80;99.90
3275;DHT22;1649;53.672;10.064;2023-07-13T14:51:59;20.80;99.90
3275;DHT22;1649;53.672;10.064;2023-07-13T14:54:24;20.90;99.90
3275;DHT22;1649;53.672;10.064;2023-07-13T14:56:50;21.00;99.90
3275;DHT22;1649;53.672;10.064;2023-07-13T14:59:16;21.00;99.90
3275;DHT22;1649;53.672;10.064;2023-07-13T15:01:45;21.10;99.90
3275;DHT22;1649;53.672;10.064;2023-07-13T15:04:11;21.20;99.90
3275;DHT22;1649;53.672;10.064;2023-07-13T15:09:20;21.10;99.90
3275;DHT22;1649;53.672;10.064;2023-07-13T15:11:46;21.20;99.90
3275;DHT22;1649;53.672;10.064;2023-07-13T15:14:11;21.30;99.90
3275;DHT22;1649;53.672;10.064;2023-07-13T15:16:37;21.50;99.90
3275;DHT22;1649;53.672;10.064;2023-07-13T15:19:02;21.60;99.90
3275;DHT22;1649;53.672;10.064;2023-07-13T15:21:28;21.60;99.90
3275;DHT22;1649;53.672;10.064;2023-07-13T15:24:00;21.70;99.90
3275;DHT22;1649;53.672;10.064;2023-07-13T15:26:25;21.80;99.90
3275;DHT22;1649;53.672;10.064;2023-07-13T15:28:51;22.00;99.90
3275;DHT22;1649;53.672;10.064;2023-07-13T15:31:26;22.10;99.90
3275;DHT22;1649;53.672;10.064;2023-07-13T15:33:55;22.10;99.90
3275;DHT22;1649;53.672;10.064;2023-07-13T15:36:23;21.90;99.90
3275;DHT22;1649;53.672;10.064;2023-07-13T15:38:52;21.70;99.90
3275;DHT22;1649;53.672;10.064;2023-07-13T15:41:21;21.60;99.90
3275;DHT22;1649;53.672;10.064;2023-07-13T15:43:48;21.80;99.90
3275;DHT22;1649;53.672;10.064;2023-07-13T15:46:14;22.00;99.90
3275;DHT22;1649;53.672;10.064;2023-07-13T15:48:40;22.10;99.90
3275;DHT22;1649;53.672;10.064;2023-07-13T15:51:11;22.20;99.90
3275;DHT22;1649;53.672;10.064;2023-07-13T15:53:39;22.20;99.90
3275;DHT22;1649;53.672;10.064;2023-07-13T15:56:23;22.00;99.90
3275;DHT22;1649;53.672;10.064;2023-07-13T15:58:51;21.90;99.90
3275;DHT22;1649;53.672;10.064;2023-07-13T16:01:17;21.50;99.90
3275;DHT22;1649;53.672;10.064;2023-07-13T16:03:46;21.40;99.90
3275;DHT22;1649;53.672;10.064;2023-07-13T16:06:27;21.20;99.90
3275;DHT22;1649;53.672;10.064;2023-07-13T16:08:54;21.20;99.90
3275;DHT22;1649;53.672;10.064;2023-07-13T16:11:25;21.30;99.90
3275;DHT22;1649;53.672;10.064;2023-07-13T16:13:52;21.30;99.90
3275;DHT22;1649;53.672;10.064;2023-07-13T16:16:21;21.20;99.90
3275;DHT22;1649;53.672;10.064;2023-07-13T16:18:53;21.10;99.90
3275;DHT22;1649;53.672;10.064;2023-07-13T16:21:22;21.20;99.90
3275;DHT22;1649;53.672;10.064;2023-07-13T16:23:49;21.10;99.90
3275;DHT22;1649;53.672;10.064;2023-07-13T16:26:30;21.00;99.90